sensor_id;sensor_type;location;lat;lon;timestamp;P1;durP1;ratioP1;P2;durP2;ratioP2
70071;SDS011;57434;42.794;23.302;2023-03-30T00:00:15;4.90;;;1.48;;
70071;SDS011;57434;42.794;23.302;2023-03-30T00:01:17;7.80;;;1.80;;
70071;SDS011;57434;42.794;23.302;2023-03-30T00:02:21;6.45;;;1.80;;
70071;SDS011;57434;42.794;23.302;2023-03-30T00:03:24;6.00;;;1.80;;
70071;SDS011;57434;42.794;23.302;2023-03-30T00:04:28;8.15;;;1.70;;
70071;SDS011;57434;42.794;23.302;2023-03-30T00:05:31;5.50;;;1.57;;
70071;SDS011;57434;42.794;23.302;2023-03-30T00:06:35;7.32;;;1.83;;
70071;SDS011;57434;42.794;23.302;2023-03-30T00:07:37;4.40;;;1.60;;
70071;SDS011;57434;42.794;23.302;2023-03-30T00:08:40;5.25;;;1.40;;
70071;SDS011;57434;42.794;23.302;2023-03-30T00:09:42;5.43;;;1.38;;
70071;SDS011;57434;42.794;23.302;2023-03-30T00:10:44;4.90;;;1.58;;
70071;SDS011;57434;42.794;23.302;2023-03-30T00:11:47;6.75;;;1.85;;
70071;SDS011;57434;42.794;23.302;2023-03-30T00:12:49;5.70;;;1.58;;
70071;SDS011;57434;42.794;23.302;2023-03-30T00:13:52;4.68;;;1.70;;
70071;SDS011;57434;42.794;23.302;2023-03-30T00:14:54;6.43;;;1.90;;
70071;SDS011;57434;42.794;23.302;2023-03-30T00:15:57;8.97;;;2.30;;
70071;SDS011;57434;42.794;23.302;2023-03-30T00:17:00;8.20;;;2.85;;
70071;SDS011;57434;42.794;23.302;2023-03-30T00:18:03;11.98;;;3.88;;
70071;SDS011;57434;42.794;23.302;2023-03-30T00:19:06;15.73;;;7.18;;
70071;SDS011;57434;42.794;23.302;2023-03-30T00:20:09;10.30;;;4.30;;
70071;SDS011;57434;42.794;23.302;2023-03-30T00:21:12;15.63;;;5.25;;
70071;SDS011;57434;42.794;23.302;2023-03-30T00:22:14;6.82;;;2.90;;
70071;SDS011;57434;42.794;23.302;2023-03-30T00:23:17;4.90;;;1.52;;
70071;SDS011;57434;42.794;23.302;2023-03-30T00:24:20;5.53;;;1.80;;
70071;SDS011;57434;42.794;23.302;2023-03-30T00:25:22;5.80;;;1.35;;
70071;SDS011;57434;42.794;23.302;2023-03-30T00:26:24;4.77;;;1.70;;
70071;SDS011;57434;42.794;23.302;2023-03-30T00:27:26;4.55;;;1.63;;
70071;SDS011;57434;42.794;23.302;2023-03-30T00:28:29;6.85;;;2.45;;
70071;SDS011;57434;42.794;23.302;2023-03-30T00:29:31;38.38;;;11.35;;
70071;SDS011;57434;42.794;23.302;2023-03-30T00:30:33;27.20;;;8.93;;
70071;SDS011;57434;42.794;23.302;2023-03-30T00:31:35;15.30;;;4.43;;
70071;SDS011;57434;42.794;23.302;2023-03-30T00:32:44;8.68;;;2.42;;
70071;SDS011;57434;42.794;23.302;2023-03-30T00:33:46;8.15;;;2.00;;
70071;SDS011;57434;42.794;23.302;2023-03-30T00:34:49;4.97;;;1.60;;
70071;SDS011;57434;42.794;23.302;2023-03-30T00:35:55;6.10;;;1.60;;
70071;SDS011;57434;42.794;23.302;2023-03-30T00:36:58;5.47;;;1.73;;
70071;SDS011;57434;42.794;23.302;2023-03-30T00:38:01;6.72;;;1.65;;
70071;SDS011;57434;42.794;23.302;2023-03-30T00:39:03;4.43;;;1.20;;
70071;SDS011;57434;42.794;23.302;2023-03-30T00:40:07;5.20;;;1.73;;
70071;SDS011;57434;42.794;23.302;2023-03-30T00:41:11;5.32;;;1.50;;
70071;SDS011;57434;42.794;23.302;2023-03-30T00:42:13;4.90;;;1.50;;
70071;SDS011;57434;42.794;23.302;2023-03-30T00:43:16;6.45;;;1.90;;
70071;SDS011;57434;42.794;23.302;2023-03-30T00:46:06;3.95;;;1.13;;
70071;SDS011;57434;42.794;23.302;2023-03-30T00:47:08;6.25;;;1.55;;
70071;SDS011;57434;42.794;23.302;2023-03-30T00:48:21;8.57;;;1.57;;
70071;SDS011;57434;42.794;23.302;2023-03-30T00:49:27;4.25;;;1.30;;
70071;SDS011;57434;42.794;23.302;2023-03-30T00:50:31;3.38;;;1.00;;
70071;SDS011;57434;42.794;23.302;2023-03-30T00:51:37;3.47;;;1.00;;
70071;SDS011;57434;42.794;23.302;2023-03-30T00:52:42;4.57;;;1.27;;
70071;SDS011;57434;42.794;23.302;2023-03-30T00:53:49;4.90;;;1.27;;
70071;SDS011;57434;42.794;23.302;2023-03-30T00:54:55;4.25;;;1.33;;
70071;SDS011;57434;42.794;23.302;2023-03-30T00:55:58;4.80;;;1.27;;
70071;SDS011;57434;42.794;23.302;2023-03-30T00:57:02;3.65;;;1.10;;
70071;SDS011;57434;42.794;23.302;2023-03-30T00:58:06;5.07;;;1.23;;
70071;SDS011;57434;42.794;23.302;2023-03-30T00:59:09;4.93;;;1.27;;
70071;SDS011;57434;42.794;23.302;2023-03-30T01:00:11;3.63;;;1.00;;
70071;SDS011;57434;42.794;23.302;2023-03-30T01:01:14;4.70;;;1.48;;
70071;SDS011;57434;42.794;23.302;2023-03-30T01:02:18;4.55;;;1.38;;
70071;SDS011;57434;42.794;23.302;2023-03-30T01:03:29;5.13;;;1.73;;
70071;SDS011;57434;42.794;23.302;2023-03-30T01:04:33;4.43;;;1.40;;
70071;SDS011;57434;42.794;23.302;2023-03-30T01:05:36;5.07;;;1.77;;
70071;SDS011;57434;42.794;23.302;2023-03-30T01:06:40;4.60;;;1.60;;
70071;SDS011;57434;42.794;23.302;2023-03-30T01:07:45;6.57;;;1.90;;
70071;SDS011;57434;42.794;23.302;2023-03-30T01:08:47;5.38;;;1.38;;
70071;SDS011;57434;42.794;23.302;2023-03-30T01:09:54;5.63;;;1.40;;
70071;SDS011;57434;42.794;23.302;2023-03-30T01:10:57;3.83;;;1.27;;
70071;SDS011;57434;42.794;23.302;2023-03-30T01:11:59;6.20;;;1.65;;
70071;SDS011;57434;42.794;23.302;2023-03-30T01:13:01;6.07;;;1.65;;
70071;SDS011;57434;42.794;23.302;2023-03-30T01:14:05;12.35;;;5.07;;
70071;SDS011;57434;42.794;23.302;2023-03-30T01:15:10;13.02;;;4.18;;
70071;SDS011;57434;42.794;23.302;2023-03-30T01:17:46;3.97;;;1.25;;
70071;SDS011;57434;42.794;23.302;2023-03-30T01:20:14;5.47;;;1.50;;
70071;SDS011;57434;42.794;23.302;2023-03-30T01:23:04;3.55;;;1.10;;
70071;SDS011;57434;42.794;23.302;2023-03-30T01:24:29;3.22;;;1.10;;
70071;SDS011;57434;42.794;23.302;2023-03-30T01:25:54;4.88;;;1.10;;
70071;SDS011;57434;42.794;23.302;2023-03-30T01:36:56;3.77;;;1.00;;
70071;SDS011;57434;42.794;23.302;2023-03-30T01:38:12;4.35;;;1.35;;
70071;SDS011;57434;42.794;23.302;2023-03-30T01:40:51;4.40;;;1.30;;
70071;SDS011;57434;42.794;23.302;2023-03-30T01:43:50;4.32;;;1.42;;
70071;SDS011;57434;42.794;23.302;2023-03-30T01:45:07;4.63;;;1.35;;
70071;SDS011;57434;42.794;23.302;2023-03-30T01:46:17;4.97;;;1.50;;
70071;SDS011;57434;42.794;23.302;2023-03-30T01:48:37;4.25;;;1.98;;
70071;SDS011;57434;42.794;23.302;2023-03-30T01:49:54;4.70;;;1.47;;
70071;SDS011;57434;42.794;23.302;2023-03-30T01:51:07;5.03;;;2.40;;
70071;SDS011;57434;42.794;23.302;2023-03-30T01:52:16;4.55;;;1.70;;
70071;SDS011;57434;42.794;23.302;2023-03-30T01:53:31;4.22;;;1.60;;
70071;SDS011;57434;42.794;23.302;2023-03-30T01:54:53;4.03;;;1.25;;
70071;SDS011;57434;42.794;23.302;2023-03-30T01:56:27;4.00;;;1.13;;
70071;SDS011;57434;42.794;23.302;2023-03-30T01:57:50;4.72;;;0.90;;
70071;SDS011;57434;42.794;23.302;2023-03-30T01:59:35;7.00;;;1.20;;
70071;SDS011;57434;42.794;23.302;2023-03-30T02:00:54;4.55;;;1.27;;
70071;SDS011;57434;42.794;23.302;2023-03-30T02:01:57;3.67;;;1.02;;
70071;SDS011;57434;42.794;23.302;2023-03-30T02:03:02;4.67;;;1.33;;
70071;SDS011;57434;42.794;23.302;2023-03-30T02:04:09;7.22;;;1.35;;
70071;SDS011;57434;42.794;23.302;2023-03-30T02:05:13;8.88;;;1.65;;
70071;SDS011;57434;42.794;23.302;2023-03-30T02:06:19;7.35;;;1.52;;
70071;SDS011;57434;42.794;23.302;2023-03-30T02:07:28;4.13;;;1.08;;
70071;SDS011;57434;42.794;23.302;2023-03-30T02:08:32;4.78;;;1.00;;
70071;SDS011;57434;42.794;23.302;2023-03-30T02:09:37;5.82;;;1.40;;
70071;SDS011;57434;42.794;23.302;2023-03-30T02:10:42;6.30;;;1.70;;
70071;SDS011;57434;42.794;23.302;2023-03-30T02:11:47;6.78;;;1.70;;
70071;SDS011;57434;42.794;23.302;2023-03-30T02:12:52;6.45;;;1.48;;
70071;SDS011;57434;42.794;23.302;2023-03-30T02:13:57;5.17;;;1.33;;
70071;SDS011;57434;42.794;23.302;2023-03-30T02:15:04;3.60;;;1.00;;
70071;SDS011;57434;42.794;23.302;2023-03-30T02:16:16;4.00;;;1.02;;
70071;SDS011;57434;42.794;23.302;2023-03-30T02:17:29;3.95;;;1.20;;
70071;SDS011;57434;42.794;23.302;2023-03-30T02:18:31;4.50;;;1.10;;
70071;SDS011;57434;42.794;23.302;2023-03-30T02:19:34;4.20;;;1.33;;
70071;SDS011;57434;42.794;23.302;2023-03-30T02:20:36;5.47;;;1.33;;
70071;SDS011;57434;42.794;23.302;2023-03-30T02:21:38;5.75;;;1.85;;
70071;SDS011;57434;42.794;23.302;2023-03-30T02:22:40;5.60;;;1.83;;
70071;SDS011;57434;42.794;23.302;2023-03-30T02:23:43;7.25;;;1.45;;
70071;SDS011;57434;42.794;23.302;2023-03-30T02:24:47;4.13;;;1.23;;
70071;SDS011;57434;42.794;23.302;2023-03-30T02:25:53;4.57;;;1.48;;
70071;SDS011;57434;42.794;23.302;2023-03-30T02:26:57;5.43;;;1.52;;
70071;SDS011;57434;42.794;23.302;2023-03-30T02:28:01;4.20;;;1.40;;
70071;SDS011;57434;42.794;23.302;2023-03-30T02:29:03;5.20;;;1.52;;
70071;SDS011;57434;42.794;23.302;2023-03-30T02:30:05;5.25;;;1.52;;
70071;SDS011;57434;42.794;23.302;2023-03-30T02:31:09;4.25;;;1.38;;
70071;SDS011;57434;42.794;23.302;2023-03-30T02:33:43;4.40;;;1.50;;
70071;SDS011;57434;42.794;23.302;2023-03-30T02:35:22;6.55;;;1.30;;
70071;SDS011;57434;42.794;23.302;2023-03-30T02:37:01;5.63;;;1.70;;
70071;SDS011;57434;42.794;23.302;2023-03-30T02:39:15;6.32;;;1.63;;
70071;SDS011;57434;42.794;23.302;2023-03-30T02:40:48;5.90;;;2.40;;
70071;SDS011;57434;42.794;23.302;2023-03-30T02:50:21;4.53;;;1.50;;
70071;SDS011;57434;42.794;23.302;2023-03-30T02:51:40;4.50;;;1.50;;
70071;SDS011;57434;42.794;23.302;2023-03-30T02:53:59;7.18;;;1.92;;
70071;SDS011;57434;42.794;23.302;2023-03-30T02:55:18;6.22;;;1.98;;
70071;SDS011;57434;42.794;23.302;2023-03-30T02:56:29;7.13;;;2.03;;
70071;SDS011;57434;42.794;23.302;2023-03-30T03:01:58;8.68;;;2.15;;
70071;SDS011;57434;42.794;23.302;2023-03-30T03:03:13;5.93;;;2.10;;
70071;SDS011;57434;42.794;23.302;2023-03-30T03:04:20;4.63;;;1.65;;
70071;SDS011;57434;42.794;23.302;2023-03-30T03:05:23;5.78;;;2.20;;
70071;SDS011;57434;42.794;23.302;2023-03-30T03:06:27;6.82;;;2.58;;
70071;SDS011;57434;42.794;23.302;2023-03-30T03:07:29;6.32;;;2.10;;
70071;SDS011;57434;42.794;23.302;2023-03-30T03:08:33;5.72;;;2.50;;
70071;SDS011;57434;42.794;23.302;2023-03-30T03:09:37;7.88;;;2.40;;
70071;SDS011;57434;42.794;23.302;2023-03-30T03:10:39;5.55;;;2.33;;
70071;SDS011;57434;42.794;23.302;2023-03-30T03:11:41;5.90;;;2.40;;
70071;SDS011;57434;42.794;23.302;2023-03-30T03:12:42;5.22;;;2.35;;
70071;SDS011;57434;42.794;23.302;2023-03-30T03:13:45;7.60;;;2.87;;
70071;SDS011;57434;42.794;23.302;2023-03-30T03:14:48;6.88;;;2.22;;
70071;SDS011;57434;42.794;23.302;2023-03-30T03:15:52;9.43;;;2.83;;
70071;SDS011;57434;42.794;23.302;2023-03-30T03:16:55;7.55;;;2.72;;
70071;SDS011;57434;42.794;23.302;2023-03-30T03:17:57;6.47;;;2.03;;
70071;SDS011;57434;42.794;23.302;2023-03-30T03:18:59;12.95;;;2.60;;
70071;SDS011;57434;42.794;23.302;2023-03-30T03:20:01;7.05;;;1.95;;
70071;SDS011;57434;42.794;23.302;2023-03-30T03:21:05;8.80;;;2.40;;
70071;SDS011;57434;42.794;23.302;2023-03-30T03:22:08;5.32;;;2.25;;
70071;SDS011;57434;42.794;23.302;2023-03-30T03:23:09;5.50;;;1.77;;
70071;SDS011;57434;42.794;23.302;2023-03-30T03:24:11;10.17;;;2.90;;
70071;SDS011;57434;42.794;23.302;2023-03-30T03:25:15;5.88;;;2.58;;
70071;SDS011;57434;42.794;23.302;2023-03-30T03:26:16;7.70;;;2.78;;
70071;SDS011;57434;42.794;23.302;2023-03-30T03:27:18;6.38;;;2.33;;
70071;SDS011;57434;42.794;23.302;2023-03-30T03:28:20;6.10;;;2.30;;
70071;SDS011;57434;42.794;23.302;2023-03-30T03:29:22;6.57;;;1.90;;
70071;SDS011;57434;42.794;23.302;2023-03-30T03:30:24;6.65;;;2.38;;
70071;SDS011;57434;42.794;23.302;2023-03-30T03:31:26;5.43;;;2.20;;
70071;SDS011;57434;42.794;23.302;2023-03-30T03:32:28;5.93;;;2.03;;
70071;SDS011;57434;42.794;23.302;2023-03-30T03:33:30;7.32;;;2.33;;
70071;SDS011;57434;42.794;23.302;2023-03-30T03:34:33;6.03;;;2.43;;
70071;SDS011;57434;42.794;23.302;2023-03-30T03:35:35;5.88;;;2.03;;
70071;SDS011;57434;42.794;23.302;2023-03-30T03:36:37;6.53;;;2.35;;
70071;SDS011;57434;42.794;23.302;2023-03-30T03:37:38;8.02;;;2.28;;
70071;SDS011;57434;42.794;23.302;2023-03-30T03:38:40;4.78;;;1.98;;
70071;SDS011;57434;42.794;23.302;2023-03-30T03:39:42;7.97;;;2.72;;
70071;SDS011;57434;42.794;23.302;2023-03-30T03:40:47;6.05;;;2.67;;
70071;SDS011;57434;42.794;23.302;2023-03-30T03:41:50;5.60;;;2.13;;
70071;SDS011;57434;42.794;23.302;2023-03-30T03:42:53;9.85;;;4.57;;
70071;SDS011;57434;42.794;23.302;2023-03-30T03:43:55;36.05;;;11.00;;
70071;SDS011;57434;42.794;23.302;2023-03-30T03:44:56;13.30;;;5.73;;
70071;SDS011;57434;42.794;23.302;2023-03-30T03:45:58;8.32;;;2.97;;
70071;SDS011;57434;42.794;23.302;2023-03-30T03:47:00;6.85;;;2.72;;
70071;SDS011;57434;42.794;23.302;2023-03-30T03:48:02;8.13;;;3.22;;
70071;SDS011;57434;42.794;23.302;2023-03-30T03:49:04;6.18;;;2.90;;
70071;SDS011;57434;42.794;23.302;2023-03-30T03:50:06;6.22;;;2.70;;
70071;SDS011;57434;42.794;23.302;2023-03-30T03:51:08;5.57;;;2.58;;
70071;SDS011;57434;42.794;23.302;2023-03-30T03:52:10;5.68;;;2.53;;
70071;SDS011;57434;42.794;23.302;2023-03-30T03:53:12;6.65;;;2.83;;
70071;SDS011;57434;42.794;23.302;2023-03-30T03:54:14;5.80;;;2.20;;
70071;SDS011;57434;42.794;23.302;2023-03-30T03:55:16;7.70;;;2.57;;
70071;SDS011;57434;42.794;23.302;2023-03-30T03:56:18;9.27;;;3.13;;
70071;SDS011;57434;42.794;23.302;2023-03-30T03:57:20;9.10;;;2.92;;
70071;SDS011;57434;42.794;23.302;2023-03-30T03:58:22;5.60;;;2.25;;
70071;SDS011;57434;42.794;23.302;2023-03-30T03:59:25;6.43;;;2.63;;
70071;SDS011;57434;42.794;23.302;2023-03-30T04:00:27;6.60;;;2.72;;
70071;SDS011;57434;42.794;23.302;2023-03-30T04:01:29;6.15;;;2.70;;
70071;SDS011;57434;42.794;23.302;2023-03-30T04:02:32;6.95;;;3.00;;
70071;SDS011;57434;42.794;23.302;2023-03-30T04:03:34;6.13;;;2.40;;
70071;SDS011;57434;42.794;23.302;2023-03-30T04:04:36;6.80;;;2.90;;
70071;SDS011;57434;42.794;23.302;2023-03-30T04:05:39;7.40;;;2.50;;
70071;SDS011;57434;42.794;23.302;2023-03-30T04:06:41;7.43;;;2.60;;
70071;SDS011;57434;42.794;23.302;2023-03-30T04:07:43;7.80;;;3.00;;
70071;SDS011;57434;42.794;23.302;2023-03-30T04:08:45;6.88;;;3.38;;
70071;SDS011;57434;42.794;23.302;2023-03-30T04:09:47;6.63;;;2.70;;
70071;SDS011;57434;42.794;23.302;2023-03-30T04:10:49;6.25;;;2.47;;
70071;SDS011;57434;42.794;23.302;2023-03-30T04:11:51;7.97;;;2.85;;
70071;SDS011;57434;42.794;23.302;2023-03-30T04:12:56;7.22;;;2.83;;
70071;SDS011;57434;42.794;23.302;2023-03-30T04:13:58;5.90;;;2.63;;
70071;SDS011;57434;42.794;23.302;2023-03-30T04:15:00;5.97;;;2.55;;
70071;SDS011;57434;42.794;23.302;2023-03-30T04:16:02;7.23;;;2.73;;
70071;SDS011;57434;42.794;23.302;2023-03-30T04:17:04;7.43;;;2.80;;
70071;SDS011;57434;42.794;23.302;2023-03-30T04:18:06;5.82;;;2.63;;
70071;SDS011;57434;42.794;23.302;2023-03-30T04:19:08;9.27;;;3.05;;
70071;SDS011;57434;42.794;23.302;2023-03-30T04:20:10;6.32;;;3.08;;
70071;SDS011;57434;42.794;23.302;2023-03-30T04:21:12;10.35;;;3.00;;
70071;SDS011;57434;42.794;23.302;2023-03-30T04:22:15;9.13;;;3.20;;
70071;SDS011;57434;42.794;23.302;2023-03-30T04:23:16;10.15;;;3.47;;
70071;SDS011;57434;42.794;23.302;2023-03-30T04:24:18;7.25;;;2.70;;
70071;SDS011;57434;42.794;23.302;2023-03-30T04:25:21;9.52;;;3.03;;
70071;SDS011;57434;42.794;23.302;2023-03-30T04:26:24;7.53;;;3.10;;
70071;SDS011;57434;42.794;23.302;2023-03-30T04:27:28;6.07;;;2.70;;
70071;SDS011;57434;42.794;23.302;2023-03-30T04:28:31;6.95;;;3.05;;
70071;SDS011;57434;42.794;23.302;2023-03-30T04:29:34;6.53;;;2.83;;
70071;SDS011;57434;42.794;23.302;2023-03-30T04:30:37;10.57;;;5.00;;
70071;SDS011;57434;42.794;23.302;2023-03-30T04:31:38;48.15;;;16.40;;
70071;SDS011;57434;42.794;23.302;2023-03-30T04:32:40;18.33;;;6.88;;
70071;SDS011;57434;42.794;23.302;2023-03-30T04:33:42;8.32;;;3.20;;
70071;SDS011;57434;42.794;23.302;2023-03-30T04:34:47;6.68;;;3.10;;
70071;SDS011;57434;42.794;23.302;2023-03-30T04:35:50;6.47;;;2.78;;
70071;SDS011;57434;42.794;23.302;2023-03-30T04:36:52;8.63;;;3.60;;
70071;SDS011;57434;42.794;23.302;2023-03-30T04:37:54;9.15;;;3.78;;
70071;SDS011;57434;42.794;23.302;2023-03-30T04:38:56;7.68;;;3.65;;
70071;SDS011;57434;42.794;23.302;2023-03-30T04:39:58;9.02;;;3.60;;
70071;SDS011;57434;42.794;23.302;2023-03-30T04:41:01;8.52;;;3.90;;
70071;SDS011;57434;42.794;23.302;2023-03-30T04:42:03;8.85;;;3.33;;
70071;SDS011;57434;42.794;23.302;2023-03-30T04:43:05;8.52;;;3.60;;
70071;SDS011;57434;42.794;23.302;2023-03-30T04:44:08;9.38;;;3.92;;
70071;SDS011;57434;42.794;23.302;2023-03-30T04:45:11;8.13;;;3.22;;
70071;SDS011;57434;42.794;23.302;2023-03-30T04:46:13;10.57;;;4.45;;
70071;SDS011;57434;42.794;23.302;2023-03-30T04:47:15;10.33;;;3.80;;
70071;SDS011;57434;42.794;23.302;2023-03-30T04:48:17;8.80;;;4.05;;
70071;SDS011;57434;42.794;23.302;2023-03-30T04:49:21;9.13;;;4.18;;
70071;SDS011;57434;42.794;23.302;2023-03-30T04:50:23;9.60;;;3.55;;
70071;SDS011;57434;42.794;23.302;2023-03-30T04:51:25;6.78;;;3.15;;
70071;SDS011;57434;42.794;23.302;2023-03-30T04:52:27;7.80;;;3.28;;
70071;SDS011;57434;42.794;23.302;2023-03-30T04:53:30;7.28;;;3.63;;
70071;SDS011;57434;42.794;23.302;2023-03-30T04:54:32;8.15;;;3.67;;
70071;SDS011;57434;42.794;23.302;2023-03-30T04:55:35;8.30;;;3.28;;
70071;SDS011;57434;42.794;23.302;2023-03-30T04:56:37;8.13;;;2.80;;
70071;SDS011;57434;42.794;23.302;2023-03-30T04:57:39;5.83;;;2.83;;
70071;SDS011;57434;42.794;23.302;2023-03-30T04:58:41;9.23;;;3.53;;
70071;SDS011;57434;42.794;23.302;2023-03-30T04:59:43;7.53;;;3.03;;
70071;SDS011;57434;42.794;23.302;2023-03-30T05:00:45;8.82;;;2.80;;
70071;SDS011;57434;42.794;23.302;2023-03-30T05:01:47;9.02;;;3.08;;
70071;SDS011;57434;42.794;23.302;2023-03-30T05:02:49;9.98;;;3.03;;
70071;SDS011;57434;42.794;23.302;2023-03-30T05:03:51;10.10;;;3.90;;
70071;SDS011;57434;42.794;23.302;2023-03-30T05:04:53;21.20;;;9.18;;
70071;SDS011;57434;42.794;23.302;2023-03-30T05:05:54;17.27;;;8.82;;
70071;SDS011;57434;42.794;23.302;2023-03-30T05:06:56;24.38;;;7.63;;
70071;SDS011;57434;42.794;23.302;2023-03-30T05:07:58;14.37;;;5.50;;
70071;SDS011;57434;42.794;23.302;2023-03-30T05:09:01;8.07;;;3.45;;
70071;SDS011;57434;42.794;23.302;2023-03-30T05:10:03;9.32;;;3.58;;
70071;SDS011;57434;42.794;23.302;2023-03-30T05:11:06;8.30;;;3.03;;
70071;SDS011;57434;42.794;23.302;2023-03-30T05:12:07;7.72;;;3.38;;
70071;SDS011;57434;42.794;23.302;2023-03-30T05:13:09;6.60;;;3.15;;
70071;SDS011;57434;42.794;23.302;2023-03-30T05:14:11;9.18;;;3.22;;
70071;SDS011;57434;42.794;23.302;2023-03-30T05:15:14;9.93;;;3.70;;
70071;SDS011;57434;42.794;23.302;2023-03-30T05:16:16;6.47;;;2.95;;
70071;SDS011;57434;42.794;23.302;2023-03-30T05:17:19;9.63;;;3.65;;
70071;SDS011;57434;42.794;23.302;2023-03-30T05:18:21;9.93;;;3.60;;
70071;SDS011;57434;42.794;23.302;2023-03-30T05:19:24;7.35;;;3.95;;
70071;SDS011;57434;42.794;23.302;2023-03-30T05:20:26;11.77;;;4.80;;
70071;SDS011;57434;42.794;23.302;2023-03-30T05:21:27;20.10;;;6.60;;
70071;SDS011;57434;42.794;23.302;2023-03-30T05:22:29;13.02;;;5.55;;
70071;SDS011;57434;42.794;23.302;2023-03-30T05:23:31;19.23;;;6.70;;
70071;SDS011;57434;42.794;23.302;2023-03-30T05:24:33;9.80;;;4.10;;
70071;SDS011;57434;42.794;23.302;2023-03-30T05:25:35;9.32;;;3.85;;
70071;SDS011;57434;42.794;23.302;2023-03-30T05:26:37;8.75;;;3.80;;
70071;SDS011;57434;42.794;23.302;2023-03-30T05:27:40;8.70;;;3.90;;
70071;SDS011;57434;42.794;23.302;2023-03-30T05:28:42;9.80;;;3.97;;
70071;SDS011;57434;42.794;23.302;2023-03-30T05:29:43;10.43;;;3.80;;
70071;SDS011;57434;42.794;23.302;2023-03-30T05:30:45;9.55;;;3.88;;
70071;SDS011;57434;42.794;23.302;2023-03-30T05:31:47;9.00;;;3.85;;
70071;SDS011;57434;42.794;23.302;2023-03-30T05:32:49;9.23;;;3.83;;
70071;SDS011;57434;42.794;23.302;2023-03-30T05:33:51;11.23;;;4.28;;
70071;SDS011;57434;42.794;23.302;2023-03-30T05:34:55;9.35;;;3.40;;
70071;SDS011;57434;42.794;23.302;2023-03-30T05:35:57;10.50;;;3.97;;
70071;SDS011;57434;42.794;23.302;2023-03-30T05:36:59;9.95;;;4.18;;
70071;SDS011;57434;42.794;23.302;2023-03-30T05:38:01;9.13;;;4.05;;
70071;SDS011;57434;42.794;23.302;2023-03-30T05:39:04;13.70;;;5.03;;
70071;SDS011;57434;42.794;23.302;2023-03-30T05:40:06;8.63;;;4.15;;
70071;SDS011;57434;42.794;23.302;2023-03-30T05:41:08;11.02;;;4.32;;
70071;SDS011;57434;42.794;23.302;2023-03-30T05:42:10;10.10;;;4.40;;
70071;SDS011;57434;42.794;23.302;2023-03-30T05:43:13;8.73;;;4.07;;
70071;SDS011;57434;42.794;23.302;2023-03-30T05:44:15;9.43;;;4.00;;
70071;SDS011;57434;42.794;23.302;2023-03-30T05:45:16;8.63;;;4.07;;
70071;SDS011;57434;42.794;23.302;2023-03-30T05:46:18;9.10;;;4.28;;
70071;SDS011;57434;42.794;23.302;2023-03-30T05:47:21;7.72;;;4.00;;
70071;SDS011;57434;42.794;23.302;2023-03-30T05:48:22;23.27;;;11.77;;
70071;SDS011;57434;42.794;23.302;2023-03-30T05:49:24;28.33;;;13.37;;
70071;SDS011;57434;42.794;23.302;2023-03-30T05:50:26;18.92;;;8.55;;
70071;SDS011;57434;42.794;23.302;2023-03-30T05:51:28;10.93;;;4.60;;
70071;SDS011;57434;42.794;23.302;2023-03-30T05:52:29;11.38;;;5.43;;
70071;SDS011;57434;42.794;23.302;2023-03-30T05:53:31;8.43;;;3.90;;
70071;SDS011;57434;42.794;23.302;2023-03-30T05:54:34;8.13;;;3.83;;
70071;SDS011;57434;42.794;23.302;2023-03-30T05:55:36;8.85;;;4.20;;
70071;SDS011;57434;42.794;23.302;2023-03-30T05:56:38;8.63;;;3.80;;
70071;SDS011;57434;42.794;23.302;2023-03-30T05:57:40;11.02;;;3.75;;
70071;SDS011;57434;42.794;23.302;2023-03-30T05:58:42;7.43;;;3.40;;
70071;SDS011;57434;42.794;23.302;2023-03-30T05:59:44;7.13;;;3.60;;
70071;SDS011;57434;42.794;23.302;2023-03-30T06:00:45;6.97;;;2.83;;
70071;SDS011;57434;42.794;23.302;2023-03-30T06:01:47;8.00;;;3.50;;
70071;SDS011;57434;42.794;23.302;2023-03-30T06:02:49;9.18;;;3.90;;
70071;SDS011;57434;42.794;23.302;2023-03-30T06:03:51;10.70;;;3.92;;
70071;SDS011;57434;42.794;23.302;2023-03-30T06:04:54;8.77;;;3.78;;
70071;SDS011;57434;42.794;23.302;2023-03-30T06:05:56;7.70;;;3.38;;
70071;SDS011;57434;42.794;23.302;2023-03-30T06:06:58;8.82;;;3.88;;
70071;SDS011;57434;42.794;23.302;2023-03-30T06:08:00;6.68;;;2.80;;
70071;SDS011;57434;42.794;23.302;2023-03-30T06:09:02;8.70;;;3.22;;
70071;SDS011;57434;42.794;23.302;2023-03-30T06:10:05;8.73;;;3.20;;
70071;SDS011;57434;42.794;23.302;2023-03-30T06:11:07;8.48;;;3.15;;
70071;SDS011;57434;42.794;23.302;2023-03-30T06:12:09;9.05;;;3.28;;
70071;SDS011;57434;42.794;23.302;2023-03-30T06:13:11;6.45;;;3.10;;
70071;SDS011;57434;42.794;23.302;2023-03-30T06:14:13;8.57;;;3.63;;
70071;SDS011;57434;42.794;23.302;2023-03-30T06:15:15;6.60;;;2.97;;
70071;SDS011;57434;42.794;23.302;2023-03-30T06:16:17;6.75;;;2.65;;
70071;SDS011;57434;42.794;23.302;2023-03-30T06:17:19;6.50;;;3.15;;
70071;SDS011;57434;42.794;23.302;2023-03-30T06:18:21;7.50;;;2.72;;
70071;SDS011;57434;42.794;23.302;2023-03-30T06:19:23;7.50;;;3.08;;
70071;SDS011;57434;42.794;23.302;2023-03-30T06:20:25;7.57;;;2.67;;
70071;SDS011;57434;42.794;23.302;2023-03-30T06:21:27;7.38;;;2.40;;
70071;SDS011;57434;42.794;23.302;2023-03-30T06:22:29;6.03;;;2.92;;
70071;SDS011;57434;42.794;23.302;2023-03-30T06:23:32;7.53;;;3.65;;
70071;SDS011;57434;42.794;23.302;2023-03-30T06:24:36;8.10;;;3.97;;
70071;SDS011;57434;42.794;23.302;2023-03-30T06:25:39;6.82;;;2.80;;
70071;SDS011;57434;42.794;23.302;2023-03-30T06:26:41;7.82;;;2.72;;
70071;SDS011;57434;42.794;23.302;2023-03-30T06:27:43;5.85;;;2.20;;
70071;SDS011;57434;42.794;23.302;2023-03-30T06:28:45;7.93;;;4.00;;
70071;SDS011;57434;42.794;23.302;2023-03-30T06:29:47;9.73;;;3.50;;
70071;SDS011;57434;42.794;23.302;2023-03-30T06:30:49;8.33;;;3.23;;
70071;SDS011;57434;42.794;23.302;2023-03-30T06:31:51;6.65;;;2.97;;
70071;SDS011;57434;42.794;23.302;2023-03-30T06:32:53;6.15;;;2.90;;
70071;SDS011;57434;42.794;23.302;2023-03-30T06:33:54;9.45;;;3.50;;
70071;SDS011;57434;42.794;23.302;2023-03-30T06:34:57;11.82;;;4.60;;
70071;SDS011;57434;42.794;23.302;2023-03-30T06:35:59;14.40;;;6.45;;
70071;SDS011;57434;42.794;23.302;2023-03-30T06:37:01;17.25;;;7.70;;
70071;SDS011;57434;42.794;23.302;2023-03-30T06:38:04;9.40;;;4.22;;
70071;SDS011;57434;42.794;23.302;2023-03-30T06:39:06;7.28;;;3.10;;
70071;SDS011;57434;42.794;23.302;2023-03-30T06:40:09;6.57;;;2.88;;
70071;SDS011;57434;42.794;23.302;2023-03-30T06:41:11;7.17;;;3.33;;
70071;SDS011;57434;42.794;23.302;2023-03-30T06:42:13;7.75;;;2.75;;
70071;SDS011;57434;42.794;23.302;2023-03-30T06:43:20;8.27;;;3.08;;
70071;SDS011;57434;42.794;23.302;2023-03-30T06:44:24;8.02;;;2.58;;
70071;SDS011;57434;42.794;23.302;2023-03-30T06:45:26;6.43;;;2.75;;
70071;SDS011;57434;42.794;23.302;2023-03-30T06:46:28;7.05;;;2.33;;
70071;SDS011;57434;42.794;23.302;2023-03-30T06:47:30;11.35;;;3.35;;
70071;SDS011;57434;42.794;23.302;2023-03-30T06:48:32;6.18;;;2.83;;
70071;SDS011;57434;42.794;23.302;2023-03-30T06:49:34;6.78;;;2.97;;
70071;SDS011;57434;42.794;23.302;2023-03-30T06:50:36;6.18;;;2.50;;
70071;SDS011;57434;42.794;23.302;2023-03-30T06:51:38;7.83;;;2.70;;
70071;SDS011;57434;42.794;23.302;2023-03-30T06:52:40;7.50;;;2.95;;
70071;SDS011;57434;42.794;23.302;2023-03-30T06:53:43;6.80;;;2.53;;
70071;SDS011;57434;42.794;23.302;2023-03-30T06:54:44;6.57;;;3.08;;
70071;SDS011;57434;42.794;23.302;2023-03-30T06:55:53;7.72;;;2.75;;
70071;SDS011;57434;42.794;23.302;2023-03-30T06:56:57;7.90;;;2.58;;